createdAt,value
2022-08-18T00:02:02.898Z,7.93
2022-08-18T00:04:36.568Z,7.82
2022-08-18T00:07:17.170Z,8.52
2022-08-18T00:09:46.408Z,7.50
2022-08-18T00:12:17.485Z,8.20
2022-08-18T00:14:47.587Z,7.88
2022-08-18T00:17:16.332Z,8.05
2022-08-18T00:19:47.357Z,8.25
2022-08-18T00:22:18.263Z,8.27
2022-08-18T00:24:49.054Z,7.93
2022-08-18T00:27:21.649Z,8.27
2022-08-18T00:29:53.140Z,8.43
2022-08-18T00:32:24.062Z,8.70
2022-08-18T00:34:52.652Z,8.25
2022-08-18T00:37:20.725Z,8.30
2022-08-18T00:39:48.597Z,8.23
2022-08-18T00:42:28.663Z,9.40
2022-08-18T00:45:04.766Z,8.38
2022-08-18T00:47:42.662Z,8.57
2022-08-18T00:50:14.496Z,8.52
2022-08-18T00:52:46.909Z,8.23
2022-08-18T00:55:15.356Z,9.00
2022-08-18T00:57:44.262Z,9.23
2022-08-18T01:00:15.321Z,9.07
2022-08-18T01:02:47.650Z,8.65
2022-08-18T01:05:20.789Z,9.15
2022-08-18T01:07:51.375Z,9.27
2022-08-18T01:10:21.351Z,8.65
2022-08-18T01:12:52.026Z,9.40
2022-08-18T01:15:28.136Z,9.80
2022-08-18T01:18:15.930Z,9.85
2022-08-18T01:21:16.357Z,9.90
2022-08-18T01:23:47.010Z,9.40
2022-08-18T01:26:15.182Z,9.57
2022-08-18T01:28:45.210Z,9.82
2022-08-18T01:31:29.292Z,9.68
2022-08-18T01:33:57.510Z,9.80
2022-08-18T01:36:25.289Z,8.93
2022-08-18T01:38:54.732Z,9.30
2022-08-18T01:41:30.282Z,9.48
2022-08-18T01:43:59.259Z,9.00
2022-08-18T01:46:27.377Z,9.45
2022-08-18T01:48:55.134Z,9.43
2022-08-18T01:51:39.440Z,9.65
2022-08-18T01:54:11.507Z,10.07
2022-08-18T01:56:40.788Z,9.63
2022-08-18T01:59:14.761Z,9.88
2022-08-18T02:01:50.318Z,10.52
2022-08-18T02:04:34.952Z,9.70
2022-08-18T02:07:06.482Z,10.25
2022-08-18T02:09:36.556Z,9.82
2022-08-18T02:12:07.260Z,10.40
2022-08-18T02:14:35.939Z,10.23
2022-08-18T02:17:05.975Z,9.80
2022-08-18T02:19:35.365Z,9.95
2022-08-18T02:22:03.759Z,9.57
2022-08-18T02:24:31.674Z,9.32
2022-08-18T02:27:00.783Z,10.00
2022-08-18T02:29:28.752Z,9.80
2022-08-18T02:31:56.670Z,10.10
2022-08-18T02:34:25.485Z,10.45
2022-08-18T02:36:53.565Z,10.93
2022-08-18T02:39:21.731Z,10.00
2022-08-18T02:41:49.483Z,10.13
2022-08-18T02:44:18.920Z,10.32
2022-08-18T02:46:47.047Z,10.40
2022-08-18T02:49:14.811Z,9.82
2022-08-18T02:51:46.243Z,9.68
2022-08-18T02:54:14.108Z,10.25
2022-08-18T02:56:42.569Z,11.38
2022-08-18T02:59:12.244Z,10.90
2022-08-18T03:01:43.594Z,10.38
2022-08-18T03:04:15.595Z,10.93
2022-08-18T03:06:44.199Z,10.73
2022-08-18T03:09:13.210Z,11.20
2022-08-18T03:11:41.135Z,11.40
2022-08-18T03:14:12.302Z,10.30
2022-08-18T03:16:53.397Z,10.02
2022-08-18T03:19:23.247Z,11.20
2022-08-18T03:21:52.807Z,11.77
2022-08-18T03:24:23.040Z,10.90
2022-08-18T03:26:53.020Z,11.38
2022-08-18T03:29:21.720Z,10.43
2022-08-18T03:31:51.275Z,10.93
2022-08-18T03:34:21.578Z,10.95
2022-08-18T03:36:50.906Z,12.30
2022-08-18T03:39:20.122Z,11.43
2022-08-18T03:41:58.259Z,11.23
2022-08-18T03:44:30.540Z,11.00
2022-08-18T03:47:01.014Z,11.80
2022-08-18T03:49:28.901Z,11.35
2022-08-18T03:52:00.090Z,11.40
2022-08-18T03:54:28.260Z,12.35
2022-08-18T03:56:56.287Z,11.80
2022-08-18T03:59:27.263Z,11.65
2022-08-18T04:01:56.228Z,11.73
2022-08-18T04:04:28.441Z,11.95
2022-08-18T04:06:59.057Z,10.93
2022-08-18T04:09:28.885Z,11.45
2022-08-18T04:11:58.101Z,11.40
2022-08-18T04:14:29.877Z,12.55
2022-08-18T04:16:58.522Z,10.73
2022-08-18T04:19:28.300Z,12.38
2022-08-18T04:21:57.838Z,12.65
2022-08-18T04:24:28.109Z,12.70
2022-08-18T04:26:58.286Z,11.32
2022-08-18T04:29:26.248Z,11.15
2022-08-18T04:31:54.098Z,12.05
2022-08-18T04:34:23.321Z,12.55
2022-08-18T04:36:54.454Z,11.68
2022-08-18T04:39:23.732Z,12.10
2022-08-18T04:41:51.821Z,14.15
2022-08-18T04:44:20.030Z,13.50
2022-08-18T04:46:51.759Z,12.93
2022-08-18T04:49:21.558Z,13.48
2022-08-18T04:52:37.753Z,12.25
2022-08-18T04:54:54.142Z,12.95
2022-08-18T04:57:22.964Z,12.18
2022-08-18T04:59:53.502Z,12.25
2022-08-18T05:02:22.967Z,10.93
2022-08-18T05:04:52.351Z,12.30
2022-08-18T05:07:23.668Z,12.45
2022-08-18T05:09:55.040Z,12.40
2022-08-18T05:12:26.141Z,11.60
2022-08-18T05:14:56.982Z,11.65
2022-08-18T05:17:30.052Z,10.98
2022-08-18T05:19:58.907Z,11.30
2022-08-18T05:22:30.593Z,12.60
2022-08-18T05:24:59.170Z,12.43
2022-08-18T05:27:31.492Z,11.77
2022-08-18T05:29:59.237Z,10.82
2022-08-18T05:32:48.198Z,11.00
2022-08-18T05:35:26.124Z,11.02
2022-08-18T05:38:20.861Z,11.43
2022-08-18T05:41:04.991Z,10.75
2022-08-18T05:43:32.905Z,11.73
2022-08-18T05:46:03.369Z,11.80
2022-08-18T05:48:31.094Z,11.18
2022-08-18T05:51:02.756Z,11.73
2022-08-18T05:53:46.153Z,12.18
2022-08-18T05:56:28.505Z,10.93
2022-08-18T05:58:57.517Z,11.52
2022-08-18T06:01:29.830Z,12.13
2022-08-18T06:04:06.767Z,11.57
2022-08-18T06:06:36.974Z,11.57
2022-08-18T06:09:13.054Z,12.07
2022-08-18T06:11:40.886Z,13.38
2022-08-18T06:14:08.729Z,12.15
2022-08-18T06:16:50.192Z,12.07
2022-08-18T06:19:29.428Z,12.48
2022-08-18T06:22:03.624Z,12.25
2022-08-18T06:24:39.162Z,12.00
2022-08-18T06:27:13.968Z,11.93
2022-08-18T06:29:54.491Z,13.77
2022-08-18T06:32:34.210Z,12.23
2022-08-18T06:35:12.360Z,12.57
2022-08-18T06:38:03.163Z,12.65
2022-08-18T06:40:32.280Z,12.55
2022-08-18T06:43:02.115Z,11.45
2022-08-18T06:45:39.959Z,12.63
2022-08-18T06:48:15.550Z,11.88
2022-08-18T06:50:51.162Z,12.43
2022-08-18T06:53:27.883Z,11.98
2022-08-18T06:55:57.445Z,12.18
2022-08-18T06:58:30.056Z,11.48
2022-08-18T07:01:02.509Z,11.70
2022-08-18T07:03:45.230Z,11.75
2022-08-18T07:06:27.574Z,12.23
2022-08-18T07:08:57.402Z,11.95
2022-08-18T07:11:31.067Z,12.32
2022-08-18T07:14:16.431Z,11.35
2022-08-18T07:16:58.186Z,12.05
2022-08-18T07:19:30.593Z,12.13
2022-08-18T07:22:03.823Z,12.07
2022-08-18T07:24:37.461Z,12.07
2022-08-18T07:27:09.249Z,11.90
2022-08-18T07:29:39.929Z,11.27
2022-08-18T07:32:20.847Z,11.52
2022-08-18T07:34:55.124Z,11.73
2022-08-18T07:37:28.992Z,12.45
2022-08-18T07:40:02.330Z,12.15
2022-08-18T07:43:00.763Z,11.63
2022-08-18T07:45:34.257Z,12.27
2022-08-18T07:48:34.856Z,12.50
2022-08-18T07:51:08.578Z,12.05
2022-08-18T07:53:54.767Z,10.95
2022-08-18T07:56:37.861Z,12.07
2022-08-18T07:59:17.254Z,12.25
2022-08-18T08:01:54.168Z,12.10
2022-08-18T08:04:31.448Z,12.30
2022-08-18T08:07:23.821Z,11.48
2022-08-18T08:10:00.969Z,11.20
2022-08-18T08:12:45.306Z,10.90
2022-08-18T08:15:26.514Z,10.70
2022-08-18T08:18:02.030Z,11.02
2022-08-18T08:20:38.110Z,10.23
2022-08-18T08:23:17.831Z,9.88
2022-08-18T08:26:01.858Z,9.70
2022-08-18T08:28:43.701Z,9.60
2022-08-18T08:31:36.272Z,9.50
2022-08-18T08:34:11.888Z,9.75
2022-08-18T08:36:41.981Z,10.18
2022-08-18T08:39:17.319Z,9.88
2022-08-18T08:41:51.196Z,9.48
2022-08-18T08:44:23.299Z,9.43
2022-08-18T08:46:57.444Z,8.35
2022-08-18T08:49:35.728Z,8.07
2022-08-18T08:52:10.890Z,8.00
2022-08-18T08:54:45.070Z,7.18
2022-08-18T08:57:15.269Z,7.53
2022-08-18T08:59:46.655Z,7.70
2022-08-18T09:02:50.858Z,7.55
2022-08-18T09:05:22.615Z,7.97
2022-08-18T09:08:23.224Z,7.40
2022-08-18T09:11:11.723Z,6.72
2022-08-18T09:14:00.593Z,6.72
2022-08-18T09:16:42.384Z,6.63
2022-08-18T09:19:40.927Z,6.57
2022-08-18T09:22:18.793Z,6.03
2022-08-18T09:24:51.108Z,6.38
2022-08-18T09:27:48.525Z,6.65
2022-08-18T09:30:47.522Z,6.30
2022-08-18T09:33:22.943Z,6.78
2022-08-18T09:36:18.459Z,6.40
2022-08-18T09:39:10.486Z,6.60
2022-08-18T09:41:46.105Z,5.80
2022-08-18T09:44:55.456Z,6.07
2022-08-18T09:47:58.654Z,6.15
2022-08-18T09:50:54.285Z,6.00
2022-08-18T09:54:08.479Z,5.65
2022-08-18T09:57:16.506Z,5.47
2022-08-18T10:00:24.415Z,5.63
2022-08-18T10:03:14.180Z,5.63
2022-08-18T10:05:59.436Z,5.05
2022-08-18T10:09:17.912Z,4.78
2022-08-18T10:12:29.635Z,4.85
2022-08-18T10:15:33.173Z,5.75
2022-08-18T10:18:22.593Z,5.70
2022-08-18T10:21:01.866Z,5.40
2022-08-18T10:23:58.448Z,5.10
2022-08-18T10:27:08.407Z,5.40
2022-08-18T10:30:06.217Z,5.72
2022-08-18T10:32:54.138Z,5.55
2022-08-18T10:36:07.557Z,5.75
2022-08-18T10:38:46.129Z,5.72
2022-08-18T10:41:31.013Z,5.60
2022-08-18T10:44:01.289Z,5.03
2022-08-18T10:46:42.338Z,5.80
2022-08-18T10:49:23.123Z,5.65
2022-08-18T10:52:14.814Z,5.32
2022-08-18T10:55:01.431Z,4.78
2022-08-18T10:57:40.195Z,4.97
2022-08-18T11:00:13.507Z,5.32
2022-08-18T11:03:02.429Z,5.60
2022-08-18T11:05:43.114Z,5.53
2022-08-18T11:08:18.569Z,5.32
2022-08-18T11:11:27.519Z,5.07
2022-08-18T11:13:49.254Z,5.00
2022-08-18T11:16:28.565Z,5.07
2022-08-18T11:19:05.181Z,4.70
2022-08-18T11:24:29.090Z,4.55
2022-08-18T11:26:58.959Z,4.85
2022-08-18T11:29:32.197Z,4.85
2022-08-18T11:32:06.262Z,5.05
2022-08-18T11:34:52.015Z,4.95
2022-08-18T11:37:26.984Z,4.80
2022-08-18T11:39:58.774Z,5.65
2022-08-18T11:42:33.213Z,5.72
2022-08-18T11:45:14.184Z,5.15
2022-08-18T11:48:01.412Z,5.03
2022-08-18T11:50:34.457Z,4.90
2022-08-18T11:53:18.881Z,5.05
2022-08-18T11:56:15.188Z,5.32
2022-08-18T11:58:50.435Z,5.20
2022-08-18T12:01:42.150Z,5.03
2022-08-18T12:04:16.655Z,5.03
2022-08-18T12:07:06.297Z,4.38
2022-08-18T12:10:16.501Z,5.15
2022-08-18T12:12:30.496Z,5.03
2022-08-18T12:15:09.063Z,5.00
2022-08-18T12:17:43.403Z,4.70
2022-08-18T12:20:21.191Z,4.63
2022-08-18T12:22:50.674Z,4.10
2022-08-18T12:25:24.818Z,5.25
2022-08-18T12:27:53.920Z,4.72
2022-08-18T12:30:21.971Z,4.88
2022-08-18T12:33:05.573Z,4.82
2022-08-18T12:35:38.434Z,5.50
2022-08-18T12:40:55.308Z,4.97
2022-08-18T12:43:23.071Z,5.15
2022-08-18T12:45:50.898Z,5.13
2022-08-18T12:51:07.388Z,4.93
2022-08-18T12:53:58.566Z,4.75
2022-08-18T12:56:31.015Z,4.75
2022-08-18T12:59:01.180Z,4.70
2022-08-18T13:01:32.901Z,4.68
2022-08-18T13:04:11.321Z,4.65
2022-08-18T13:06:58.875Z,5.03
2022-08-18T13:09:48.083Z,5.05
2022-08-18T13:12:19.601Z,4.50
2022-08-18T13:14:49.783Z,4.85
2022-08-18T13:17:32.803Z,5.20
2022-08-18T13:20:02.920Z,5.05
2022-08-18T13:22:32.859Z,4.75
2022-08-18T13:25:03.853Z,5.15
2022-08-18T13:27:35.286Z,4.85
2022-08-18T13:30:16.600Z,5.10
2022-08-18T13:33:00.365Z,4.80
2022-08-18T13:35:38.370Z,5.00
2022-08-18T13:38:20.727Z,4.70
2022-08-18T13:40:51.804Z,5.07
2022-08-18T13:43:23.457Z,4.60
2022-08-18T13:45:53.483Z,5.00
2022-08-18T13:48:24.351Z,4.80
2022-08-18T13:50:53.815Z,4.60
2022-08-18T13:53:24.671Z,5.15
2022-08-18T13:55:57.519Z,5.18
2022-08-18T13:58:27.063Z,5.07
2022-08-18T14:01:16.221Z,5.00
2022-08-18T14:03:47.930Z,4.95
2022-08-18T14:06:22.015Z,4.93
2022-08-18T14:08:51.746Z,5.10
2022-08-18T14:11:23.502Z,5.13
2022-08-18T14:13:53.858Z,5.20
2022-08-18T14:16:22.930Z,4.53
2022-08-18T14:19:12.197Z,5.43
2022-08-18T14:22:01.573Z,4.55
2022-08-18T14:24:48.984Z,5.00
2022-08-18T14:27:18.577Z,5.30
2022-08-18T14:29:49.785Z,5.07
2022-08-18T14:32:29.215Z,4.75
2022-08-18T14:35:00.797Z,4.78
2022-08-18T14:37:41.177Z,5.07
2022-08-18T14:40:12.467Z,5.18
2022-08-18T14:42:54.374Z,4.70
2022-08-18T14:45:31.587Z,5.03
2022-08-18T14:48:06.705Z,4.35
2022-08-18T14:50:40.093Z,5.05
2022-08-18T14:53:13.595Z,4.40
2022-08-18T14:55:43.180Z,4.45
2022-08-18T14:58:12.451Z,5.07
2022-08-18T15:00:49.714Z,4.32
2022-08-18T15:03:22.092Z,5.35
2022-08-18T15:06:00.109Z,5.32
2022-08-18T15:08:28.336Z,5.40
2022-08-18T15:10:57.343Z,5.07
2022-08-18T15:13:26.718Z,5.85
2022-08-18T15:15:55.849Z,5.90
2022-08-18T15:18:31.302Z,6.10
2022-08-18T15:21:19.512Z,6.20
2022-08-18T15:24:20.693Z,6.25
2022-08-18T15:26:51.487Z,6.03
2022-08-18T15:29:22.634Z,6.90
2022-08-18T15:31:59.859Z,6.40
2022-08-18T15:34:32.810Z,5.85
2022-08-18T15:37:14.387Z,6.50
2022-08-18T15:39:42.593Z,6.40
2022-08-18T15:42:13.521Z,6.43
2022-08-18T15:44:44.694Z,6.68
2022-08-18T15:47:12.620Z,6.68
2022-08-18T15:49:40.545Z,6.40
2022-08-18T15:52:11.928Z,7.57
2022-08-18T15:54:42.287Z,6.13
2022-08-18T15:57:23.593Z,6.53
2022-08-18T16:00:03.694Z,6.88
2022-08-18T16:02:31.776Z,6.22
2022-08-18T16:05:10.249Z,6.47
2022-08-18T16:07:45.200Z,6.50
2022-08-18T16:10:13.216Z,5.90
2022-08-18T16:12:46.297Z,6.38
2022-08-18T16:15:19.587Z,6.25
2022-08-18T16:17:51.696Z,6.22
2022-08-18T16:20:19.975Z,5.80
2022-08-18T16:22:48.586Z,6.50
2022-08-18T16:25:17.162Z,6.40
2022-08-18T16:27:45.525Z,6.30
2022-08-18T16:30:17.391Z,6.43
2022-08-18T16:32:45.580Z,5.82
2022-08-18T16:35:13.345Z,6.50
2022-08-18T16:37:41.433Z,6.20
2022-08-18T16:40:10.291Z,6.00
2022-08-18T16:42:38.241Z,6.38
2022-08-18T16:45:07.129Z,6.43
2022-08-18T16:47:39.044Z,6.35
2022-08-18T16:50:09.082Z,6.72
2022-08-18T16:52:37.289Z,6.20
2022-08-18T16:55:06.300Z,6.60
2022-08-18T16:57:54.019Z,6.18
2022-08-18T17:00:41.528Z,7.25
2022-08-18T17:03:28.685Z,6.60
2022-08-18T17:06:03.667Z,6.40
2022-08-18T17:08:34.173Z,6.75
2022-08-18T17:11:02.191Z,6.22
2022-08-18T17:13:31.401Z,6.60
2022-08-18T17:15:59.200Z,6.60
2022-08-18T17:18:29.546Z,6.78
2022-08-18T17:20:57.360Z,6.90
2022-08-18T17:23:27.436Z,6.28
2022-08-18T17:25:56.484Z,6.82
2022-08-18T17:28:30.627Z,6.80
2022-08-18T17:30:59.975Z,6.78
2022-08-18T17:33:32.499Z,6.22
2022-08-18T17:36:05.521Z,6.30
2022-08-18T17:38:40.725Z,6.20
2022-08-18T17:41:08.551Z,6.07
2022-08-18T17:46:23.648Z,5.70
2022-08-18T17:48:57.086Z,5.82
2022-08-18T17:51:35.258Z,6.80
2022-08-18T17:54:10.014Z,5.70
2022-08-18T17:56:43.576Z,6.38
2022-08-18T17:59:45.671Z,6.68
2022-08-18T18:02:28.498Z,6.63
2022-08-18T18:05:00.860Z,7.15
2022-08-18T18:07:32.780Z,6.82
2022-08-18T18:10:04.338Z,6.70
2022-08-18T18:12:34.619Z,7.05
2022-08-18T18:15:05.197Z,6.45
2022-08-18T18:17:37.916Z,7.38
2022-08-18T18:20:17.090Z,7.35
2022-08-18T18:22:45.782Z,6.78
2022-08-18T18:25:30.130Z,7.60
2022-08-18T18:28:02.805Z,7.80
2022-08-18T18:30:31.793Z,7.60
2022-08-18T18:33:03.017Z,7.53
2022-08-18T18:35:54.060Z,7.45
2022-08-18T18:38:28.029Z,7.32
2022-08-18T18:40:59.001Z,7.45
2022-08-18T18:43:29.777Z,7.07
2022-08-18T18:46:23.748Z,8.23
2022-08-18T18:49:09.684Z,7.82
2022-08-18T18:51:43.627Z,8.43
2022-08-18T18:54:27.130Z,7.72
2022-08-18T18:56:57.317Z,7.50
2022-08-18T18:59:35.785Z,8.38
2022-08-18T19:02:33.780Z,8.15
2022-08-18T19:05:17.719Z,8.77
2022-08-18T19:07:58.053Z,8.13
2022-08-18T19:10:34.730Z,8.30
2022-08-18T19:13:07.034Z,8.27
2022-08-18T19:15:38.441Z,7.80
2022-08-18T19:18:25.896Z,7.82
2022-08-18T19:22:05.034Z,9.10
2022-08-18T19:23:57.694Z,8.38
2022-08-18T19:26:29.469Z,8.43
2022-08-18T19:29:13.589Z,8.73
2022-08-18T19:31:46.975Z,8.68
2022-08-18T19:34:22.732Z,8.93
2022-08-18T19:37:00.775Z,9.85
2022-08-18T19:39:39.351Z,9.52
2022-08-18T19:42:12.468Z,9.57
2022-08-18T19:45:00.301Z,9.77
2022-08-18T19:47:40.784Z,10.05
2022-08-18T19:50:16.229Z,9.38
2022-08-18T19:53:01.073Z,10.00
2022-08-18T19:55:48.680Z,9.57
2022-08-18T19:58:53.347Z,9.38
2022-08-18T20:01:39.468Z,9.50
2022-08-18T20:04:19.746Z,9.00
2022-08-18T20:07:11.480Z,9.88
2022-08-18T20:10:09.472Z,9.45
2022-08-18T20:12:56.777Z,9.88
2022-08-18T20:15:28.447Z,10.15
2022-08-18T20:18:20.315Z,10.18
2022-08-18T20:21:39.898Z,9.02
2022-08-18T20:24:34.788Z,10.30
2022-08-18T20:27:22.484Z,9.10
2022-08-18T20:30:21.565Z,8.98
2022-08-18T20:33:11.123Z,10.05
2022-08-18T20:35:45.799Z,9.68
2022-08-18T20:38:29.770Z,9.45
2022-08-18T20:40:59.659Z,10.18
2022-08-18T20:43:30.833Z,9.93
2022-08-18T20:46:12.616Z,10.25
2022-08-18T20:49:07.072Z,10.07
2022-08-18T20:51:42.795Z,10.77
2022-08-18T20:54:32.863Z,10.32
2022-08-18T20:57:03.641Z,9.77
2022-08-18T20:59:34.578Z,10.38
2022-08-18T21:02:09.563Z,9.85
2022-08-18T21:04:46.379Z,9.85
2022-08-18T21:07:36.355Z,10.43
2022-08-18T21:10:13.446Z,10.13
2022-08-18T21:12:51.826Z,10.10
2022-08-18T21:15:23.095Z,9.88
2022-08-18T21:18:00.071Z,10.02
2022-08-18T21:20:29.044Z,9.77
2022-08-18T21:23:04.605Z,8.95
2022-08-18T21:25:33.599Z,9.50
2022-08-18T21:28:03.987Z,10.25
2022-08-18T21:30:32.739Z,9.73
2022-08-18T21:33:02.092Z,9.50
2022-08-18T21:35:32.065Z,10.02
2022-08-18T21:38:02.825Z,10.05
2022-08-18T21:40:43.443Z,10.60
2022-08-18T21:43:14.198Z,9.23
2022-08-18T21:45:47.621Z,10.13
2022-08-18T21:48:16.981Z,9.93
2022-08-18T21:50:51.609Z,9.55
2022-08-18T21:53:23.176Z,9.45
2022-08-18T21:55:52.322Z,9.52
2022-08-18T21:58:33.640Z,10.38
2022-08-18T22:01:21.604Z,9.63
2022-08-18T22:03:54.270Z,10.02
2022-08-18T22:06:29.118Z,9.82
2022-08-18T22:08:59.972Z,9.52
2022-08-18T22:12:00.754Z,9.35
2022-08-18T22:14:35.999Z,8.75
2022-08-18T22:17:28.440Z,9.10
2022-08-18T22:20:35.987Z,9.25
2022-08-18T22:23:24.856Z,10.20
2022-08-18T22:25:52.683Z,10.27
2022-08-18T22:28:24.423Z,10.63
2022-08-18T22:30:55.115Z,10.07
2022-08-18T22:33:23.141Z,10.15
2022-08-18T22:35:57.162Z,10.40
2022-08-18T22:38:30.139Z,10.20
2022-08-18T22:41:00.117Z,9.10
2022-08-18T22:43:28.449Z,9.40
2022-08-18T22:45:56.165Z,9.02
2022-08-18T22:48:23.903Z,9.77
2022-08-18T22:50:51.913Z,9.80
2022-08-18T22:53:21.020Z,9.57
2022-08-18T22:55:49.277Z,9.63
2022-08-18T22:58:22.141Z,9.98
2022-08-18T23:01:05.544Z,10.48
2022-08-18T23:03:35.083Z,10.45
2022-08-18T23:06:11.441Z,10.57
2022-08-18T23:08:54.572Z,11.77
2022-08-18T23:11:25.318Z,10.18
2022-08-18T23:13:53.962Z,11.38
2022-08-18T23:16:31.150Z,11.13
2022-08-18T23:19:01.839Z,11.77
2022-08-18T23:21:34.234Z,11.43
2022-08-18T23:24:05.800Z,12.10
2022-08-18T23:26:34.185Z,12.25
2022-08-18T23:29:03.317Z,11.55
2022-08-18T23:31:31.441Z,11.70
2022-08-18T23:34:00.588Z,11.70
2022-08-18T23:36:28.703Z,11.80
2022-08-18T23:38:56.508Z,11.18
2022-08-18T23:41:25.965Z,12.32
2022-08-18T23:43:53.849Z,12.13
2022-08-18T23:46:24.349Z,12.38
2022-08-18T23:48:53.353Z,12.38
2022-08-18T23:51:30.418Z,13.88
2022-08-18T23:54:00.669Z,13.98
2022-08-18T23:56:32.139Z,15.40
2022-08-18T23:59:00.715Z,14.63
